sensor_id;sensor_type;location;lat;lon;timestamp;P1;durP1;ratioP1;P2;durP2;ratioP2
76023;SDS011;64719;52.124;6.226;2023-03-01T00:01:06;11.85;;;6.65;;
76023;SDS011;64719;52.124;6.226;2023-03-01T00:03:34;10.23;;;5.85;;
76023;SDS011;64719;52.124;6.226;2023-03-01T00:06:01;9.82;;;5.50;;
76023;SDS011;64719;52.124;6.226;2023-03-01T00:08:28;10.75;;;5.28;;
76023;SDS011;64719;52.124;6.226;2023-03-01T00:11:04;9.60;;;5.38;;
76023;SDS011;64719;52.124;6.226;2023-03-01T00:13:32;11.38;;;6.18;;
76023;SDS011;64719;52.124;6.226;2023-03-01T00:16:01;11.55;;;5.90;;
76023;SDS011;64719;52.124;6.226;2023-03-01T00:18:28;11.05;;;5.45;;
76023;SDS011;64719;52.124;6.226;2023-03-01T00:20:55;12.38;;;5.88;;
76023;SDS011;64719;52.124;6.226;2023-03-01T00:23:21;10.07;;;5.53;;
76023;SDS011;64719;52.124;6.226;2023-03-01T00:25:49;11.23;;;5.82;;
76023;SDS011;64719;52.124;6.226;2023-03-01T00:28:17;11.82;;;6.80;;
76023;SDS011;64719;52.124;6.226;2023-03-01T00:30:44;14.23;;;7.30;;
76023;SDS011;64719;52.124;6.226;2023-03-01T00:33:11;13.80;;;7.30;;
76023;SDS011;64719;52.124;6.226;2023-03-01T00:35:37;14.30;;;6.43;;
76023;SDS011;64719;52.124;6.226;2023-03-01T00:38:04;14.05;;;6.95;;
76023;SDS011;64719;52.124;6.226;2023-03-01T00:40:32;13.25;;;7.05;;
76023;SDS011;64719;52.124;6.226;2023-03-01T00:43:00;14.45;;;7.20;;
76023;SDS011;64719;52.124;6.226;2023-03-01T00:45:28;12.38;;;6.68;;
76023;SDS011;64719;52.124;6.226;2023-03-01T00:47:56;13.05;;;7.43;;
76023;SDS011;64719;52.124;6.226;2023-03-01T00:50:23;10.23;;;6.30;;
76023;SDS011;64719;52.124;6.226;2023-03-01T00:52:51;13.75;;;6.47;;
76023;SDS011;64719;52.124;6.226;2023-03-01T00:55:19;14.75;;;7.20;;
76023;SDS011;64719;52.124;6.226;2023-03-01T00:57:45;13.85;;;6.60;;
76023;SDS011;64719;52.124;6.226;2023-03-01T01:00:12;12.13;;;7.07;;
76023;SDS011;64719;52.124;6.226;2023-03-01T01:02:40;10.38;;;5.88;;
76023;SDS011;64719;52.124;6.226;2023-03-01T01:05:07;13.00;;;6.35;;
76023;SDS011;64719;52.124;6.226;2023-03-01T01:07:34;12.60;;;6.57;;
76023;SDS011;64719;52.124;6.226;2023-03-01T01:10:01;13.07;;;5.95;;
76023;SDS011;64719;52.124;6.226;2023-03-01T01:12:27;9.70;;;5.68;;
76023;SDS011;64719;52.124;6.226;2023-03-01T01:14:54;10.73;;;6.05;;
76023;SDS011;64719;52.124;6.226;2023-03-01T01:17:21;10.15;;;5.18;;
76023;SDS011;64719;52.124;6.226;2023-03-01T01:19:48;12.02;;;5.60;;
76023;SDS011;64719;52.124;6.226;2023-03-01T01:22:15;10.25;;;5.38;;
76023;SDS011;64719;52.124;6.226;2023-03-01T01:24:42;12.57;;;6.45;;
76023;SDS011;64719;52.124;6.226;2023-03-01T01:27:08;13.05;;;6.35;;
76023;SDS011;64719;52.124;6.226;2023-03-01T01:29:35;12.60;;;5.43;;
76023;SDS011;64719;52.124;6.226;2023-03-01T01:32:02;11.20;;;6.32;;
76023;SDS011;64719;52.124;6.226;2023-03-01T01:34:29;9.95;;;5.38;;
76023;SDS011;64719;52.124;6.226;2023-03-01T01:36:57;11.05;;;5.78;;
76023;SDS011;64719;52.124;6.226;2023-03-01T01:39:27;8.77;;;5.30;;
76023;SDS011;64719;52.124;6.226;2023-03-01T01:41:54;9.40;;;5.13;;
76023;SDS011;64719;52.124;6.226;2023-03-01T01:44:21;10.00;;;4.70;;
76023;SDS011;64719;52.124;6.226;2023-03-01T01:46:50;9.00;;;4.95;;
76023;SDS011;64719;52.124;6.226;2023-03-01T01:49:25;9.95;;;5.35;;
76023;SDS011;64719;52.124;6.226;2023-03-01T01:51:57;10.25;;;5.35;;
76023;SDS011;64719;52.124;6.226;2023-03-01T01:54:32;11.48;;;5.30;;
76023;SDS011;64719;52.124;6.226;2023-03-01T01:57:06;9.85;;;5.20;;
76023;SDS011;64719;52.124;6.226;2023-03-01T01:59:38;7.90;;;4.55;;
76023;SDS011;64719;52.124;6.226;2023-03-01T02:02:08;10.98;;;5.03;;
76023;SDS011;64719;52.124;6.226;2023-03-01T02:04:35;10.10;;;5.57;;
76023;SDS011;64719;52.124;6.226;2023-03-01T02:07:03;11.65;;;5.25;;
76023;SDS011;64719;52.124;6.226;2023-03-01T02:09:35;9.80;;;5.13;;
76023;SDS011;64719;52.124;6.226;2023-03-01T02:12:02;9.77;;;4.63;;
76023;SDS011;64719;52.124;6.226;2023-03-01T02:14:30;9.07;;;5.00;;
76023;SDS011;64719;52.124;6.226;2023-03-01T02:16:56;10.13;;;4.88;;
76023;SDS011;64719;52.124;6.226;2023-03-01T02:19:28;8.45;;;4.60;;
76023;SDS011;64719;52.124;6.226;2023-03-01T02:22:05;9.50;;;5.35;;
76023;SDS011;64719;52.124;6.226;2023-03-01T02:24:44;7.40;;;4.25;;
76023;SDS011;64719;52.124;6.226;2023-03-01T02:27:18;9.30;;;4.90;;
76023;SDS011;64719;52.124;6.226;2023-03-01T02:29:53;7.93;;;4.50;;
76023;SDS011;64719;52.124;6.226;2023-03-01T02:32:20;8.45;;;4.55;;
76023;SDS011;64719;52.124;6.226;2023-03-01T02:34:50;8.73;;;5.13;;
76023;SDS011;64719;52.124;6.226;2023-03-01T02:37:17;8.82;;;4.45;;
76023;SDS011;64719;52.124;6.226;2023-03-01T02:39:50;8.30;;;4.57;;
76023;SDS011;64719;52.124;6.226;2023-03-01T02:42:23;11.05;;;5.43;;
76023;SDS011;64719;52.124;6.226;2023-03-01T02:44:57;10.15;;;4.63;;
76023;SDS011;64719;52.124;6.226;2023-03-01T02:47:23;7.85;;;4.78;;
76023;SDS011;64719;52.124;6.226;2023-03-01T02:49:50;9.20;;;5.07;;
76023;SDS011;64719;52.124;6.226;2023-03-01T02:52:26;9.32;;;5.05;;
76023;SDS011;64719;52.124;6.226;2023-03-01T02:55:00;8.27;;;4.82;;
76023;SDS011;64719;52.124;6.226;2023-03-01T02:57:29;8.77;;;4.85;;
76023;SDS011;64719;52.124;6.226;2023-03-01T03:00:00;9.30;;;4.90;;
76023;SDS011;64719;52.124;6.226;2023-03-01T03:02:32;10.90;;;5.10;;
76023;SDS011;64719;52.124;6.226;2023-03-01T03:05:05;11.80;;;4.82;;
76023;SDS011;64719;52.124;6.226;2023-03-01T03:07:34;8.85;;;4.68;;
76023;SDS011;64719;52.124;6.226;2023-03-01T03:10:03;10.40;;;5.43;;
76023;SDS011;64719;52.124;6.226;2023-03-01T03:12:30;7.72;;;4.97;;
76023;SDS011;64719;52.124;6.226;2023-03-01T03:15:05;8.82;;;4.57;;
76023;SDS011;64719;52.124;6.226;2023-03-01T03:17:33;9.27;;;5.10;;
76023;SDS011;64719;52.124;6.226;2023-03-01T03:20:00;8.45;;;5.20;;
76023;SDS011;64719;52.124;6.226;2023-03-01T03:22:28;8.40;;;4.78;;
76023;SDS011;64719;52.124;6.226;2023-03-01T03:24:54;13.15;;;4.75;;
76023;SDS011;64719;52.124;6.226;2023-03-01T03:27:21;8.55;;;4.22;;
76023;SDS011;64719;52.124;6.226;2023-03-01T03:29:47;9.40;;;5.13;;
76023;SDS011;64719;52.124;6.226;2023-03-01T03:32:15;8.15;;;5.18;;
76023;SDS011;64719;52.124;6.226;2023-03-01T03:34:42;9.93;;;5.05;;
76023;SDS011;64719;52.124;6.226;2023-03-01T03:37:09;8.18;;;4.75;;
76023;SDS011;64719;52.124;6.226;2023-03-01T03:39:55;9.32;;;4.88;;
76023;SDS011;64719;52.124;6.226;2023-03-01T03:42:22;8.75;;;5.28;;
76023;SDS011;64719;52.124;6.226;2023-03-01T03:44:48;10.57;;;5.13;;
76023;SDS011;64719;52.124;6.226;2023-03-01T03:47:16;10.30;;;5.53;;
76023;SDS011;64719;52.124;6.226;2023-03-01T03:49:43;10.25;;;5.50;;
76023;SDS011;64719;52.124;6.226;2023-03-01T03:52:09;10.05;;;4.75;;
76023;SDS011;64719;52.124;6.226;2023-03-01T03:54:38;9.02;;;5.28;;
76023;SDS011;64719;52.124;6.226;2023-03-01T03:57:05;11.32;;;5.95;;
76023;SDS011;64719;52.124;6.226;2023-03-01T03:59:31;8.32;;;4.70;;
76023;SDS011;64719;52.124;6.226;2023-03-01T04:01:58;9.88;;;5.75;;
76023;SDS011;64719;52.124;6.226;2023-03-01T04:04:26;12.13;;;6.18;;
76023;SDS011;64719;52.124;6.226;2023-03-01T04:06:53;9.98;;;5.72;;
76023;SDS011;64719;52.124;6.226;2023-03-01T04:09:19;11.55;;;5.88;;
76023;SDS011;64719;52.124;6.226;2023-03-01T04:11:46;10.75;;;6.13;;
76023;SDS011;64719;52.124;6.226;2023-03-01T04:14:12;12.48;;;5.72;;
76023;SDS011;64719;52.124;6.226;2023-03-01T04:16:39;14.73;;;6.43;;
76023;SDS011;64719;52.124;6.226;2023-03-01T04:19:06;9.75;;;5.68;;
76023;SDS011;64719;52.124;6.226;2023-03-01T04:21:35;10.90;;;6.05;;
76023;SDS011;64719;52.124;6.226;2023-03-01T04:24:02;11.85;;;6.05;;
76023;SDS011;64719;52.124;6.226;2023-03-01T04:26:29;13.45;;;5.97;;
76023;SDS011;64719;52.124;6.226;2023-03-01T04:28:56;12.20;;;6.07;;
76023;SDS011;64719;52.124;6.226;2023-03-01T04:31:22;12.65;;;6.10;;
76023;SDS011;64719;52.124;6.226;2023-03-01T04:33:50;11.35;;;5.57;;
76023;SDS011;64719;52.124;6.226;2023-03-01T04:36:18;10.30;;;5.63;;
76023;SDS011;64719;52.124;6.226;2023-03-01T04:38:48;9.80;;;5.93;;
76023;SDS011;64719;52.124;6.226;2023-03-01T04:41:15;9.80;;;5.60;;
76023;SDS011;64719;52.124;6.226;2023-03-01T04:43:42;14.13;;;6.05;;
76023;SDS011;64719;52.124;6.226;2023-03-01T04:46:11;11.50;;;6.07;;
76023;SDS011;64719;52.124;6.226;2023-03-01T04:48:39;11.00;;;6.07;;
76023;SDS011;64719;52.124;6.226;2023-03-01T04:51:06;8.70;;;5.25;;
76023;SDS011;64719;52.124;6.226;2023-03-01T04:53:34;12.52;;;6.45;;
76023;SDS011;64719;52.124;6.226;2023-03-01T04:56:02;9.02;;;5.15;;
76023;SDS011;64719;52.124;6.226;2023-03-01T04:58:29;11.07;;;6.50;;
76023;SDS011;64719;52.124;6.226;2023-03-01T05:00:56;12.32;;;5.63;;
76023;SDS011;64719;52.124;6.226;2023-03-01T05:03:23;10.73;;;5.57;;
76023;SDS011;64719;52.124;6.226;2023-03-01T05:05:51;9.25;;;5.55;;
76023;SDS011;64719;52.124;6.226;2023-03-01T05:08:18;10.30;;;5.55;;
76023;SDS011;64719;52.124;6.226;2023-03-01T05:10:46;10.57;;;5.18;;
76023;SDS011;64719;52.124;6.226;2023-03-01T05:13:16;9.20;;;5.75;;
76023;SDS011;64719;52.124;6.226;2023-03-01T05:15:47;10.85;;;5.93;;
76023;SDS011;64719;52.124;6.226;2023-03-01T05:18:14;9.85;;;5.13;;
76023;SDS011;64719;52.124;6.226;2023-03-01T05:20:41;10.13;;;5.47;;
76023;SDS011;64719;52.124;6.226;2023-03-01T05:23:07;8.55;;;5.45;;
76023;SDS011;64719;52.124;6.226;2023-03-01T05:25:34;8.20;;;4.57;;
76023;SDS011;64719;52.124;6.226;2023-03-01T05:28:05;11.52;;;5.28;;
76023;SDS011;64719;52.124;6.226;2023-03-01T05:30:34;10.88;;;5.30;;
76023;SDS011;64719;52.124;6.226;2023-03-01T05:33:00;11.65;;;5.68;;
76023;SDS011;64719;52.124;6.226;2023-03-01T05:35:27;9.45;;;5.57;;
76023;SDS011;64719;52.124;6.226;2023-03-01T05:37:54;10.65;;;6.07;;
76023;SDS011;64719;52.124;6.226;2023-03-01T05:40:21;11.10;;;5.88;;
76023;SDS011;64719;52.124;6.226;2023-03-01T05:42:51;10.70;;;6.20;;
76023;SDS011;64719;52.124;6.226;2023-03-01T05:45:19;10.93;;;5.43;;
76023;SDS011;64719;52.124;6.226;2023-03-01T05:47:48;10.40;;;5.90;;
76023;SDS011;64719;52.124;6.226;2023-03-01T05:50:16;13.32;;;6.55;;
76023;SDS011;64719;52.124;6.226;2023-03-01T05:52:45;11.45;;;5.57;;
76023;SDS011;64719;52.124;6.226;2023-03-01T05:55:13;10.27;;;5.20;;
76023;SDS011;64719;52.124;6.226;2023-03-01T05:57:40;10.65;;;5.40;;
76023;SDS011;64719;52.124;6.226;2023-03-01T06:00:07;11.90;;;6.38;;
76023;SDS011;64719;52.124;6.226;2023-03-01T06:02:35;12.05;;;6.13;;
76023;SDS011;64719;52.124;6.226;2023-03-01T06:05:04;10.45;;;6.35;;
76023;SDS011;64719;52.124;6.226;2023-03-01T06:07:31;11.45;;;6.03;;
76023;SDS011;64719;52.124;6.226;2023-03-01T06:09:58;9.98;;;5.50;;
76023;SDS011;64719;52.124;6.226;2023-03-01T06:12:24;13.75;;;6.18;;
76023;SDS011;64719;52.124;6.226;2023-03-01T06:14:51;12.75;;;6.40;;
76023;SDS011;64719;52.124;6.226;2023-03-01T06:17:17;14.77;;;7.18;;
76023;SDS011;64719;52.124;6.226;2023-03-01T06:19:44;16.48;;;7.28;;
76023;SDS011;64719;52.124;6.226;2023-03-01T06:22:13;12.63;;;6.97;;
76023;SDS011;64719;52.124;6.226;2023-03-01T06:24:40;11.82;;;6.50;;
76023;SDS011;64719;52.124;6.226;2023-03-01T06:27:06;11.13;;;6.40;;
76023;SDS011;64719;52.124;6.226;2023-03-01T06:29:33;12.68;;;6.80;;
76023;SDS011;64719;52.124;6.226;2023-03-01T06:31:59;11.48;;;7.10;;
76023;SDS011;64719;52.124;6.226;2023-03-01T06:34:26;13.50;;;6.82;;
76023;SDS011;64719;52.124;6.226;2023-03-01T06:36:52;11.55;;;6.07;;
76023;SDS011;64719;52.124;6.226;2023-03-01T06:39:20;10.02;;;6.10;;
76023;SDS011;64719;52.124;6.226;2023-03-01T06:41:47;10.57;;;6.07;;
76023;SDS011;64719;52.124;6.226;2023-03-01T06:44:13;13.93;;;6.78;;
76023;SDS011;64719;52.124;6.226;2023-03-01T06:46:40;14.70;;;6.63;;
76023;SDS011;64719;52.124;6.226;2023-03-01T06:49:06;9.27;;;6.15;;
76023;SDS011;64719;52.124;6.226;2023-03-01T06:51:34;13.20;;;6.80;;
76023;SDS011;64719;52.124;6.226;2023-03-01T06:54:01;10.48;;;6.60;;
76023;SDS011;64719;52.124;6.226;2023-03-01T06:56:29;14.18;;;7.15;;
76023;SDS011;64719;52.124;6.226;2023-03-01T06:58:56;11.48;;;7.00;;
76023;SDS011;64719;52.124;6.226;2023-03-01T07:01:23;10.75;;;6.97;;
76023;SDS011;64719;52.124;6.226;2023-03-01T07:03:49;15.50;;;7.22;;
76023;SDS011;64719;52.124;6.226;2023-03-01T07:06:16;14.18;;;6.90;;
76023;SDS011;64719;52.124;6.226;2023-03-01T07:08:42;15.35;;;7.60;;
76023;SDS011;64719;52.124;6.226;2023-03-01T07:11:09;14.20;;;7.70;;
76023;SDS011;64719;52.124;6.226;2023-03-01T07:13:37;10.07;;;7.13;;
76023;SDS011;64719;52.124;6.226;2023-03-01T07:16:04;11.55;;;7.03;;
76023;SDS011;64719;52.124;6.226;2023-03-01T07:18:31;12.13;;;7.47;;
76023;SDS011;64719;52.124;6.226;2023-03-01T07:20:57;10.52;;;8.10;;
76023;SDS011;64719;52.124;6.226;2023-03-01T07:23:24;13.52;;;7.22;;
76023;SDS011;64719;52.124;6.226;2023-03-01T07:25:51;17.30;;;8.27;;
76023;SDS011;64719;52.124;6.226;2023-03-01T07:28:19;12.25;;;8.38;;
76023;SDS011;64719;52.124;6.226;2023-03-01T07:30:47;10.60;;;6.82;;
76023;SDS011;64719;52.124;6.226;2023-03-01T07:33:13;10.90;;;6.53;;
76023;SDS011;64719;52.124;6.226;2023-03-01T07:35:40;9.45;;;6.80;;
76023;SDS011;64719;52.124;6.226;2023-03-01T07:38:06;9.07;;;6.60;;
76023;SDS011;64719;52.124;6.226;2023-03-01T07:40:33;9.15;;;6.20;;
76023;SDS011;64719;52.124;6.226;2023-03-01T07:42:59;7.35;;;6.18;;
76023;SDS011;64719;52.124;6.226;2023-03-01T07:45:27;7.60;;;5.70;;
76023;SDS011;64719;52.124;6.226;2023-03-01T07:47:56;6.93;;;6.00;;
76023;SDS011;64719;52.124;6.226;2023-03-01T07:50:22;8.55;;;5.95;;
76023;SDS011;64719;52.124;6.226;2023-03-01T07:52:50;11.07;;;6.43;;
76023;SDS011;64719;52.124;6.226;2023-03-01T07:55:16;7.72;;;6.18;;
76023;SDS011;64719;52.124;6.226;2023-03-01T07:57:43;6.55;;;5.72;;
76023;SDS011;64719;52.124;6.226;2023-03-01T08:00:10;8.30;;;6.20;;
76023;SDS011;64719;52.124;6.226;2023-03-01T08:02:37;7.03;;;6.00;;
76023;SDS011;64719;52.124;6.226;2023-03-01T08:05:07;8.38;;;6.03;;
76023;SDS011;64719;52.124;6.226;2023-03-01T08:07:34;7.80;;;6.00;;
76023;SDS011;64719;52.124;6.226;2023-03-01T08:10:00;7.40;;;5.50;;
76023;SDS011;64719;52.124;6.226;2023-03-01T08:12:27;7.68;;;5.88;;
76023;SDS011;64719;52.124;6.226;2023-03-01T08:14:53;6.45;;;5.30;;
76023;SDS011;64719;52.124;6.226;2023-03-01T08:17:20;6.97;;;5.95;;
76023;SDS011;64719;52.124;6.226;2023-03-01T08:19:47;8.60;;;6.07;;
76023;SDS011;64719;52.124;6.226;2023-03-01T08:22:14;7.30;;;5.57;;
76023;SDS011;64719;52.124;6.226;2023-03-01T08:24:41;8.85;;;5.82;;
76023;SDS011;64719;52.124;6.226;2023-03-01T08:27:08;6.70;;;5.57;;
76023;SDS011;64719;52.124;6.226;2023-03-01T08:29:35;10.60;;;6.03;;
76023;SDS011;64719;52.124;6.226;2023-03-01T08:32:01;6.82;;;5.35;;
76023;SDS011;64719;52.124;6.226;2023-03-01T08:34:28;7.90;;;5.45;;
76023;SDS011;64719;52.124;6.226;2023-03-01T08:36:56;6.38;;;5.38;;
76023;SDS011;64719;52.124;6.226;2023-03-01T08:39:24;6.80;;;5.75;;
76023;SDS011;64719;52.124;6.226;2023-03-01T08:41:50;7.40;;;5.15;;
76023;SDS011;64719;52.124;6.226;2023-03-01T08:44:17;7.25;;;5.60;;
76023;SDS011;64719;52.124;6.226;2023-03-01T08:46:44;6.35;;;5.57;;
76023;SDS011;64719;52.124;6.226;2023-03-01T08:49:12;7.28;;;5.65;;
76023;SDS011;64719;52.124;6.226;2023-03-01T08:51:40;7.47;;;5.95;;
76023;SDS011;64719;52.124;6.226;2023-03-01T08:54:10;6.32;;;5.38;;
76023;SDS011;64719;52.124;6.226;2023-03-01T08:56:39;7.57;;;5.90;;
76023;SDS011;64719;52.124;6.226;2023-03-01T08:59:06;7.22;;;5.63;;
76023;SDS011;64719;52.124;6.226;2023-03-01T09:01:33;5.68;;;4.90;;
76023;SDS011;64719;52.124;6.226;2023-03-01T09:03:59;6.20;;;5.40;;
76023;SDS011;64719;52.124;6.226;2023-03-01T09:06:26;8.70;;;5.15;;
76023;SDS011;64719;52.124;6.226;2023-03-01T09:08:53;7.15;;;5.40;;
76023;SDS011;64719;52.124;6.226;2023-03-01T09:11:21;7.50;;;5.68;;
76023;SDS011;64719;52.124;6.226;2023-03-01T09:13:49;6.40;;;5.32;;
76023;SDS011;64719;52.124;6.226;2023-03-01T09:16:17;6.20;;;5.18;;
76023;SDS011;64719;52.124;6.226;2023-03-01T09:18:45;7.55;;;4.85;;
76023;SDS011;64719;52.124;6.226;2023-03-01T09:21:15;6.55;;;5.05;;
76023;SDS011;64719;52.124;6.226;2023-03-01T09:23:44;5.80;;;5.07;;
76023;SDS011;64719;52.124;6.226;2023-03-01T09:26:13;5.00;;;4.38;;
76023;SDS011;64719;52.124;6.226;2023-03-01T09:28:41;5.80;;;4.90;;
76023;SDS011;64719;52.124;6.226;2023-03-01T09:31:11;7.85;;;4.90;;
76023;SDS011;64719;52.124;6.226;2023-03-01T09:33:38;6.30;;;4.85;;
76023;SDS011;64719;52.124;6.226;2023-03-01T09:36:06;5.00;;;4.32;;
76023;SDS011;64719;52.124;6.226;2023-03-01T09:38:34;5.82;;;4.70;;
76023;SDS011;64719;52.124;6.226;2023-03-01T09:41:01;7.07;;;4.78;;
76023;SDS011;64719;52.124;6.226;2023-03-01T09:43:29;5.88;;;4.25;;
76023;SDS011;64719;52.124;6.226;2023-03-01T09:46:03;5.30;;;3.72;;
76023;SDS011;64719;52.124;6.226;2023-03-01T09:48:46;4.85;;;3.55;;
76023;SDS011;64719;52.124;6.226;2023-03-01T09:51:17;5.13;;;4.15;;
76023;SDS011;64719;52.124;6.226;2023-03-01T09:53:47;4.75;;;3.92;;
76023;SDS011;64719;52.124;6.226;2023-03-01T09:56:15;5.20;;;3.90;;
76023;SDS011;64719;52.124;6.226;2023-03-01T09:58:48;5.85;;;3.65;;
76023;SDS011;64719;52.124;6.226;2023-03-01T10:01:29;4.47;;;3.33;;
76023;SDS011;64719;52.124;6.226;2023-03-01T10:07:05;4.63;;;3.17;;
76023;SDS011;64719;52.124;6.226;2023-03-01T10:09:46;5.32;;;3.58;;
76023;SDS011;64719;52.124;6.226;2023-03-01T10:12:14;5.32;;;3.85;;
76023;SDS011;64719;52.124;6.226;2023-03-01T10:14:44;5.25;;;3.70;;
76023;SDS011;64719;52.124;6.226;2023-03-01T10:17:20;5.10;;;3.75;;
76023;SDS011;64719;52.124;6.226;2023-03-01T10:19:54;4.07;;;3.40;;
76023;SDS011;64719;52.124;6.226;2023-03-01T10:22:22;4.50;;;3.85;;
76023;SDS011;64719;52.124;6.226;2023-03-01T10:24:53;4.72;;;3.53;;
76023;SDS011;64719;52.124;6.226;2023-03-01T10:27:22;5.20;;;3.45;;
76023;SDS011;64719;52.124;6.226;2023-03-01T10:29:51;4.97;;;3.70;;
76023;SDS011;64719;52.124;6.226;2023-03-01T10:32:25;10.63;;;3.65;;
76023;SDS011;64719;52.124;6.226;2023-03-01T10:34:52;4.88;;;3.63;;
76023;SDS011;64719;52.124;6.226;2023-03-01T10:37:20;4.32;;;3.70;;
76023;SDS011;64719;52.124;6.226;2023-03-01T10:39:56;4.70;;;3.30;;
76023;SDS011;64719;52.124;6.226;2023-03-01T10:42:29;6.18;;;4.03;;
76023;SDS011;64719;52.124;6.226;2023-03-01T10:44:57;4.85;;;3.47;;
76023;SDS011;64719;52.124;6.226;2023-03-01T10:47:40;6.10;;;4.00;;
76023;SDS011;64719;52.124;6.226;2023-03-01T10:50:17;4.45;;;3.67;;
76023;SDS011;64719;52.124;6.226;2023-03-01T10:52:56;6.43;;;4.30;;
76023;SDS011;64719;52.124;6.226;2023-03-01T10:55:26;6.05;;;3.85;;
76023;SDS011;64719;52.124;6.226;2023-03-01T10:58:06;5.13;;;4.20;;
76023;SDS011;64719;52.124;6.226;2023-03-01T11:00:34;5.65;;;3.95;;
76023;SDS011;64719;52.124;6.226;2023-03-01T11:03:13;6.40;;;4.53;;
76023;SDS011;64719;52.124;6.226;2023-03-01T11:05:53;4.97;;;4.13;;
76023;SDS011;64719;52.124;6.226;2023-03-01T11:11:25;5.43;;;4.13;;
76023;SDS011;64719;52.124;6.226;2023-03-01T11:13:58;5.53;;;3.95;;
76023;SDS011;64719;52.124;6.226;2023-03-01T11:16:29;5.88;;;4.18;;
76023;SDS011;64719;52.124;6.226;2023-03-01T11:19:00;7.50;;;4.40;;
76023;SDS011;64719;52.124;6.226;2023-03-01T11:21:41;5.32;;;4.30;;
76023;SDS011;64719;52.124;6.226;2023-03-01T11:24:15;5.13;;;4.47;;
76023;SDS011;64719;52.124;6.226;2023-03-01T11:26:44;6.63;;;4.30;;
76023;SDS011;64719;52.124;6.226;2023-03-01T11:29:17;5.72;;;3.97;;
76023;SDS011;64719;52.124;6.226;2023-03-01T11:31:52;6.13;;;4.50;;
76023;SDS011;64719;52.124;6.226;2023-03-01T11:34:24;6.63;;;4.63;;
76023;SDS011;64719;52.124;6.226;2023-03-01T11:37:02;6.25;;;4.25;;
76023;SDS011;64719;52.124;6.226;2023-03-01T11:39:42;6.20;;;4.50;;
76023;SDS011;64719;52.124;6.226;2023-03-01T11:42:14;5.85;;;4.40;;
76023;SDS011;64719;52.124;6.226;2023-03-01T11:44:44;7.03;;;4.40;;
76023;SDS011;64719;52.124;6.226;2023-03-01T11:47:16;5.80;;;4.22;;
76023;SDS011;64719;52.124;6.226;2023-03-01T11:50:00;5.88;;;4.13;;
76023;SDS011;64719;52.124;6.226;2023-03-01T11:52:39;6.75;;;4.30;;
76023;SDS011;64719;52.124;6.226;2023-03-01T11:55:22;7.00;;;4.43;;
76023;SDS011;64719;52.124;6.226;2023-03-01T12:00:52;6.38;;;3.80;;
76023;SDS011;64719;52.124;6.226;2023-03-01T12:03:28;8.13;;;4.10;;
76023;SDS011;64719;52.124;6.226;2023-03-01T12:06:09;5.57;;;3.80;;
76023;SDS011;64719;52.124;6.226;2023-03-01T12:09:07;6.03;;;4.00;;
76023;SDS011;64719;52.124;6.226;2023-03-01T12:11:56;6.85;;;3.90;;
76023;SDS011;64719;52.124;6.226;2023-03-01T12:14:41;5.15;;;4.15;;
76023;SDS011;64719;52.124;6.226;2023-03-01T12:17:21;6.22;;;4.13;;
76023;SDS011;64719;52.124;6.226;2023-03-01T12:20:10;5.57;;;3.88;;
76023;SDS011;64719;52.124;6.226;2023-03-01T12:22:45;5.32;;;3.53;;
76023;SDS011;64719;52.124;6.226;2023-03-01T12:25:25;5.50;;;4.07;;
76023;SDS011;64719;52.124;6.226;2023-03-01T12:28:08;5.63;;;4.32;;
76023;SDS011;64719;52.124;6.226;2023-03-01T12:30:58;6.45;;;3.97;;
76023;SDS011;64719;52.124;6.226;2023-03-01T12:33:39;6.25;;;3.83;;
76023;SDS011;64719;52.124;6.226;2023-03-01T12:36:24;5.80;;;4.10;;
76023;SDS011;64719;52.124;6.226;2023-03-01T12:39:10;4.55;;;3.60;;
76023;SDS011;64719;52.124;6.226;2023-03-01T12:41:47;6.00;;;3.70;;
76023;SDS011;64719;52.124;6.226;2023-03-01T12:44:27;5.55;;;4.45;;
76023;SDS011;64719;52.124;6.226;2023-03-01T12:47:12;6.63;;;4.50;;
76023;SDS011;64719;52.124;6.226;2023-03-01T12:49:48;6.43;;;4.18;;
76023;SDS011;64719;52.124;6.226;2023-03-01T12:52:20;8.55;;;4.50;;
76023;SDS011;64719;52.124;6.226;2023-03-01T12:54:54;6.28;;;4.07;;
76023;SDS011;64719;52.124;6.226;2023-03-01T12:57:25;5.15;;;4.10;;
76023;SDS011;64719;52.124;6.226;2023-03-01T13:00:05;7.47;;;4.60;;
76023;SDS011;64719;52.124;6.226;2023-03-01T13:02:47;7.38;;;4.72;;
76023;SDS011;64719;52.124;6.226;2023-03-01T13:05:27;6.55;;;4.22;;
76023;SDS011;64719;52.124;6.226;2023-03-01T13:08:05;5.13;;;4.05;;
76023;SDS011;64719;52.124;6.226;2023-03-01T13:10:39;5.15;;;3.90;;
76023;SDS011;64719;52.124;6.226;2023-03-01T13:13:13;7.20;;;4.47;;
76023;SDS011;64719;52.124;6.226;2023-03-01T13:15:47;6.15;;;3.90;;
76023;SDS011;64719;52.124;6.226;2023-03-01T13:18:29;6.15;;;4.45;;
76023;SDS011;64719;52.124;6.226;2023-03-01T13:20:58;5.45;;;4.15;;
76023;SDS011;64719;52.124;6.226;2023-03-01T13:23:31;6.40;;;4.55;;
76023;SDS011;64719;52.124;6.226;2023-03-01T13:26:01;6.18;;;4.35;;
76023;SDS011;64719;52.124;6.226;2023-03-01T13:28:41;6.03;;;4.55;;
76023;SDS011;64719;52.124;6.226;2023-03-01T13:37:33;5.38;;;3.90;;
76023;SDS011;64719;52.124;6.226;2023-03-01T13:45:59;6.22;;;3.97;;
76023;SDS011;64719;52.124;6.226;2023-03-01T13:48:28;5.45;;;3.78;;
76023;SDS011;64719;52.124;6.226;2023-03-01T13:50:59;6.65;;;4.70;;
76023;SDS011;64719;52.124;6.226;2023-03-01T13:53:29;5.18;;;3.95;;
76023;SDS011;64719;52.124;6.226;2023-03-01T13:56:00;5.75;;;3.63;;
76023;SDS011;64719;52.124;6.226;2023-03-01T13:58:29;4.88;;;3.53;;
76023;SDS011;64719;52.124;6.226;2023-03-01T14:00:58;4.45;;;3.63;;
76023;SDS011;64719;52.124;6.226;2023-03-01T14:03:27;4.53;;;3.70;;
76023;SDS011;64719;52.124;6.226;2023-03-01T14:06:01;4.20;;;3.53;;
76023;SDS011;64719;52.124;6.226;2023-03-01T14:08:32;5.18;;;3.70;;
76023;SDS011;64719;52.124;6.226;2023-03-01T14:11:07;4.70;;;3.35;;
76023;SDS011;64719;52.124;6.226;2023-03-01T14:17:00;4.57;;;3.53;;
76023;SDS011;64719;52.124;6.226;2023-03-01T14:19:35;5.88;;;3.60;;
76023;SDS011;64719;52.124;6.226;2023-03-01T14:22:05;5.45;;;3.40;;
76023;SDS011;64719;52.124;6.226;2023-03-01T14:24:44;4.22;;;2.92;;
76023;SDS011;64719;52.124;6.226;2023-03-01T14:27:14;4.55;;;3.33;;
76023;SDS011;64719;52.124;6.226;2023-03-01T14:29:42;5.38;;;3.17;;
76023;SDS011;64719;52.124;6.226;2023-03-01T14:32:10;4.65;;;3.17;;
76023;SDS011;64719;52.124;6.226;2023-03-01T14:34:42;5.15;;;3.50;;
76023;SDS011;64719;52.124;6.226;2023-03-01T14:37:14;4.30;;;3.05;;
76023;SDS011;64719;52.124;6.226;2023-03-01T14:39:45;5.10;;;3.53;;
76023;SDS011;64719;52.124;6.226;2023-03-01T14:42:13;4.07;;;3.10;;
76023;SDS011;64719;52.124;6.226;2023-03-01T14:44:41;4.05;;;3.00;;
76023;SDS011;64719;52.124;6.226;2023-03-01T14:47:10;5.22;;;2.88;;
76023;SDS011;64719;52.124;6.226;2023-03-01T14:49:39;3.85;;;2.80;;
76023;SDS011;64719;52.124;6.226;2023-03-01T14:52:07;6.57;;;3.10;;
76023;SDS011;64719;52.124;6.226;2023-03-01T14:54:46;4.57;;;2.60;;
76023;SDS011;64719;52.124;6.226;2023-03-01T14:57:15;4.40;;;2.80;;
76023;SDS011;64719;52.124;6.226;2023-03-01T14:59:43;4.65;;;3.08;;
76023;SDS011;64719;52.124;6.226;2023-03-01T15:02:11;5.95;;;2.88;;
76023;SDS011;64719;52.124;6.226;2023-03-01T15:04:42;8.35;;;3.42;;
76023;SDS011;64719;52.124;6.226;2023-03-01T15:07:11;4.30;;;2.70;;
76023;SDS011;64719;52.124;6.226;2023-03-01T15:09:40;4.70;;;2.60;;
76023;SDS011;64719;52.124;6.226;2023-03-01T15:17:51;4.55;;;2.60;;
76023;SDS011;64719;52.124;6.226;2023-03-01T15:20:22;4.53;;;2.55;;
76023;SDS011;64719;52.124;6.226;2023-03-01T15:22:52;5.38;;;2.65;;
76023;SDS011;64719;52.124;6.226;2023-03-01T15:25:20;5.65;;;2.67;;
76023;SDS011;64719;52.124;6.226;2023-03-01T15:27:50;3.70;;;2.10;;
76023;SDS011;64719;52.124;6.226;2023-03-01T15:30:21;4.65;;;2.40;;